createdAt,value
2018-07-24T00:00:58.875Z,99.90
2018-07-24T00:05:56.267Z,99.90
2018-07-24T00:08:25.060Z,99.90
2018-07-24T00:10:53.876Z,99.90
2018-07-24T00:13:22.688Z,99.90
2018-07-24T00:15:51.584Z,99.90
2018-07-24T00:18:20.332Z,99.90
2018-07-24T00:20:49.075Z,99.90
2018-07-24T00:23:17.856Z,99.90
2018-07-24T00:25:46.648Z,99.90
2018-07-24T00:28:15.688Z,99.90
2018-07-24T00:30:44.452Z,99.90
2018-07-24T00:33:13.208Z,99.90
2018-07-24T00:35:42.201Z,99.90
2018-07-24T00:38:10.993Z,99.90
2018-07-24T00:40:39.799Z,99.90
2018-07-24T00:43:08.667Z,99.90
2018-07-24T00:45:37.419Z,99.90
2018-07-24T00:48:06.197Z,99.90
2018-07-24T00:50:35.100Z,99.90
2018-07-24T00:53:03.908Z,99.90
2018-07-24T00:55:32.665Z,99.90
2018-07-24T00:58:01.808Z,99.90
2018-07-24T01:00:30.617Z,99.90
2018-07-24T01:02:59.380Z,99.90
2018-07-24T01:05:28.173Z,99.90
2018-07-24T01:07:56.916Z,99.90
2018-07-24T01:10:25.712Z,99.90
2018-07-24T01:12:54.512Z,99.90
2018-07-24T01:15:23.273Z,99.90
2018-07-24T01:17:52.135Z,99.90
2018-07-24T01:20:20.897Z,99.90
2018-07-24T01:22:49.729Z,99.90
2018-07-24T01:25:18.528Z,99.90
2018-07-24T01:27:47.277Z,99.90
2018-07-24T01:30:16.227Z,99.90
2018-07-24T01:32:45.029Z,99.90
2018-07-24T01:35:14.065Z,99.90
2018-07-24T01:37:42.848Z,99.90
2018-07-24T01:40:11.738Z,99.90
2018-07-24T01:42:40.535Z,99.90
2018-07-24T01:45:09.336Z,99.90
2018-07-24T01:47:38.591Z,99.90
2018-07-24T01:50:07.616Z,99.90
2018-07-24T01:52:36.385Z,99.90
2018-07-24T01:55:05.629Z,99.90
2018-07-24T01:57:34.414Z,99.90
2018-07-24T02:00:03.273Z,99.90
2018-07-24T02:02:32.080Z,99.90
2018-07-24T02:05:00.836Z,99.90
2018-07-24T02:07:29.624Z,99.90
2018-07-24T02:09:58.509Z,99.90
2018-07-24T02:12:27.256Z,99.90
2018-07-24T02:14:56.042Z,99.90
2018-07-24T02:17:24.804Z,99.90
2018-07-24T02:19:53.684Z,99.90
2018-07-24T02:22:22.616Z,99.90
2018-07-24T02:24:51.618Z,99.90
2018-07-24T02:27:20.492Z,99.90
2018-07-24T02:32:17.897Z,99.90
2018-07-24T02:34:46.661Z,99.90
2018-07-24T02:37:15.450Z,99.90
2018-07-24T02:39:44.205Z,99.90
2018-07-24T02:42:13.041Z,99.90
2018-07-24T02:44:41.903Z,99.90
2018-07-24T02:47:10.794Z,99.90
2018-07-24T02:49:39.831Z,99.90
2018-07-24T02:52:08.640Z,99.90
2018-07-24T02:54:37.417Z,99.90
2018-07-24T02:57:06.521Z,99.90
2018-07-24T03:02:03.773Z,99.90
2018-07-24T03:04:32.616Z,99.90
2018-07-24T03:07:01.441Z,99.90
2018-07-24T03:09:30.317Z,99.90
2018-07-24T03:11:59.116Z,99.90
2018-07-24T03:14:33.477Z,99.90
2018-07-24T03:17:02.276Z,99.90
2018-07-24T03:19:31.041Z,99.90
2018-07-24T03:21:59.864Z,99.90
2018-07-24T03:24:28.721Z,99.90
2018-07-24T03:26:57.533Z,99.90
2018-07-24T03:29:26.378Z,99.90
2018-07-24T03:31:55.176Z,99.90
2018-07-24T03:34:23.932Z,99.90
2018-07-24T03:36:52.741Z,99.90
2018-07-24T03:39:21.591Z,99.90
2018-07-24T03:41:50.369Z,99.90
2018-07-24T03:44:19.481Z,99.90
2018-07-24T03:46:48.252Z,99.90
2018-07-24T03:49:17.153Z,99.90
2018-07-24T03:51:45.984Z,99.90
2018-07-24T03:54:14.754Z,99.90
2018-07-24T03:56:43.508Z,99.90
2018-07-24T03:59:12.334Z,99.90
2018-07-24T04:01:41.269Z,99.90
2018-07-24T04:06:38.568Z,99.90
2018-07-24T04:09:08.700Z,99.90
2018-07-24T04:11:37.521Z,99.90
2018-07-24T04:14:06.279Z,99.90
2018-07-24T04:16:35.425Z,99.90
2018-07-24T04:19:04.176Z,99.90
2018-07-24T04:21:33.029Z,99.90
2018-07-24T04:24:01.825Z,99.90
2018-07-24T04:26:30.617Z,99.90
2018-07-24T04:28:59.416Z,99.90
2018-07-24T04:31:28.168Z,99.90
2018-07-24T04:33:57.039Z,99.90
2018-07-24T04:36:25.841Z,99.90
2018-07-24T04:38:55.119Z,99.90
2018-07-24T04:41:24.007Z,99.90
2018-07-24T04:43:52.746Z,99.90
2018-07-24T04:46:21.549Z,99.90
2018-07-24T04:51:18.950Z,99.90
2018-07-24T04:53:47.884Z,99.90
2018-07-24T04:56:16.784Z,99.90
2018-07-24T04:58:45.584Z,99.90
2018-07-24T05:01:14.345Z,99.90
2018-07-24T05:06:11.587Z,99.90
2018-07-24T05:08:40.351Z,99.90
2018-07-24T05:11:09.349Z,99.90
2018-07-24T05:13:38.124Z,99.90
2018-07-24T05:16:06.892Z,99.90
2018-07-24T05:18:36.096Z,99.90
2018-07-24T05:21:05.269Z,99.90
2018-07-24T05:23:34.088Z,99.90
2018-07-24T05:26:02.783Z,99.90
2018-07-24T05:28:31.584Z,99.90
2018-07-24T05:31:00.345Z,99.90
2018-07-24T05:33:29.181Z,99.90
2018-07-24T05:35:57.935Z,99.90
2018-07-24T05:38:26.780Z,99.90
2018-07-24T05:40:55.549Z,99.90
2018-07-24T05:43:24.304Z,99.90
2018-07-24T05:45:53.121Z,99.90
2018-07-24T05:48:21.994Z,99.90
2018-07-24T05:50:50.787Z,99.90
2018-07-24T05:53:19.583Z,99.90
2018-07-24T05:55:48.381Z,99.90
2018-07-24T05:58:17.190Z,99.90
2018-07-24T06:00:45.948Z,99.90
2018-07-24T06:03:14.761Z,99.90
2018-07-24T06:05:43.593Z,99.90
2018-07-24T06:08:12.701Z,99.90
2018-07-24T06:10:41.562Z,99.90
2018-07-24T06:13:10.322Z,99.90
2018-07-24T06:15:39.105Z,99.90
2018-07-24T06:18:07.913Z,99.90
2018-07-24T06:20:36.800Z,99.90
2018-07-24T06:23:05.603Z,99.90
2018-07-24T06:25:34.377Z,98.90
2018-07-24T06:28:03.179Z,99.30
2018-07-24T06:30:32.009Z,99.00
2018-07-24T06:33:00.804Z,98.50
2018-07-24T06:35:29.569Z,99.50
2018-07-24T06:37:58.369Z,98.90
2018-07-24T06:40:27.105Z,98.70
2018-07-24T06:42:56.021Z,97.70
2018-07-24T06:45:24.777Z,97.60
2018-07-24T06:47:53.528Z,98.30
2018-07-24T06:50:22.484Z,97.30
2018-07-24T06:52:51.633Z,97.60
2018-07-24T06:55:20.534Z,96.30
2018-07-24T07:00:18.033Z,96.50
2018-07-24T07:02:46.797Z,96.20
2018-07-24T07:05:15.597Z,96.20
2018-07-24T07:07:44.475Z,95.70
2018-07-24T07:10:13.285Z,95.60
2018-07-24T07:12:42.022Z,95.30
2018-07-24T07:15:10.842Z,95.50
2018-07-24T07:17:39.632Z,94.90
2018-07-24T07:20:08.436Z,94.70
2018-07-24T07:22:37.287Z,95.00
2018-07-24T07:25:06.041Z,94.70
2018-07-24T07:27:34.832Z,94.90
2018-07-24T07:30:03.601Z,95.20
2018-07-24T07:32:32.422Z,94.50
2018-07-24T07:35:01.183Z,95.20
2018-07-24T07:37:29.944Z,94.20
2018-07-24T07:39:58.741Z,93.50
2018-07-24T07:42:27.536Z,93.30
2018-07-24T07:44:56.298Z,92.90
2018-07-24T07:47:25.107Z,93.40
2018-07-24T07:49:53.910Z,92.30
2018-07-24T07:52:22.812Z,91.80
2018-07-24T07:54:51.652Z,92.20
2018-07-24T07:57:20.485Z,91.90
2018-07-24T07:59:49.360Z,91.30
2018-07-24T08:02:18.160Z,91.00
2018-07-24T08:04:47.061Z,90.70
2018-07-24T08:07:15.817Z,90.10
2018-07-24T08:09:44.617Z,90.30
2018-07-24T08:12:13.459Z,90.60
2018-07-24T08:17:10.931Z,89.90
2018-07-24T08:19:39.716Z,88.80
2018-07-24T08:22:08.509Z,87.80
2018-07-24T08:24:37.664Z,89.20
2018-07-24T08:27:06.473Z,89.40
2018-07-24T08:29:35.225Z,87.40
2018-07-24T08:32:04.081Z,87.60
2018-07-24T08:34:32.973Z,86.30
2018-07-24T08:37:01.905Z,85.80
2018-07-24T08:39:30.660Z,87.20
2018-07-24T08:41:59.409Z,88.00
2018-07-24T08:44:28.698Z,90.00
2018-07-24T08:46:57.450Z,88.00
2018-07-24T08:49:26.236Z,88.60
2018-07-24T08:51:55.021Z,87.60
2018-07-24T08:54:23.943Z,85.20
2018-07-24T08:56:52.700Z,87.40
2018-07-24T08:59:21.501Z,87.50
2018-07-24T09:01:50.260Z,86.40
2018-07-24T09:04:19.141Z,85.60
2018-07-24T09:06:47.904Z,85.30
2018-07-24T09:09:16.692Z,85.10
2018-07-24T09:11:45.713Z,87.00
2018-07-24T09:14:14.507Z,84.30
2018-07-24T09:16:43.273Z,85.20
2018-07-24T09:19:12.126Z,85.60
2018-07-24T09:21:41.337Z,85.40
2018-07-24T09:24:10.088Z,85.00
2018-07-24T09:26:39.136Z,84.40
2018-07-24T09:29:07.892Z,86.40
2018-07-24T09:31:36.655Z,85.70
2018-07-24T09:34:05.745Z,86.70
2018-07-24T09:36:34.544Z,81.40
2018-07-24T09:39:04.497Z,82.10
2018-07-24T09:41:33.252Z,82.30
2018-07-24T09:46:31.992Z,82.70
2018-07-24T09:49:00.806Z,83.20
2018-07-24T09:51:29.601Z,84.50
2018-07-24T09:53:58.397Z,83.90
2018-07-24T09:56:27.372Z,81.80
2018-07-24T09:58:56.072Z,81.10
2018-07-24T10:01:33.863Z,80.50
2018-07-24T10:04:03.428Z,80.20
2018-07-24T10:06:33.360Z,80.00
2018-07-24T10:09:02.372Z,80.00
2018-07-24T10:11:31.177Z,81.30
2018-07-24T10:13:59.968Z,79.90
2018-07-24T10:16:28.795Z,78.80
2018-07-24T10:18:57.639Z,81.70
2018-07-24T10:21:26.376Z,80.60
2018-07-24T10:26:23.793Z,80.90
2018-07-24T10:28:52.576Z,82.20
2018-07-24T10:31:21.336Z,82.30
2018-07-24T10:33:50.122Z,81.80
2018-07-24T10:36:18.893Z,85.80
2018-07-24T10:38:47.981Z,84.60
2018-07-24T10:41:16.764Z,80.90
2018-07-24T10:43:45.576Z,80.70
2018-07-24T10:46:14.584Z,76.30
2018-07-24T10:51:11.886Z,79.30
2018-07-24T10:53:40.702Z,79.00
2018-07-24T10:56:09.456Z,79.50
2018-07-24T10:58:38.280Z,81.60
2018-07-24T11:01:07.090Z,82.50
2018-07-24T11:03:35.877Z,84.10
2018-07-24T11:06:04.685Z,82.90
2018-07-24T11:08:33.491Z,80.80
2018-07-24T11:11:02.309Z,79.20
2018-07-24T11:13:31.092Z,79.80
2018-07-24T11:15:59.915Z,80.90
2018-07-24T11:18:28.672Z,79.30
2018-07-24T11:20:57.464Z,74.10
2018-07-24T11:23:26.244Z,74.00
2018-07-24T11:25:55.106Z,75.80
2018-07-24T11:28:23.954Z,75.00
2018-07-24T11:30:52.798Z,74.80
2018-07-24T11:33:21.654Z,74.40
2018-07-24T11:35:50.667Z,75.40
2018-07-24T11:38:19.400Z,78.10
2018-07-24T11:40:48.208Z,77.00
2018-07-24T11:43:17.013Z,78.00
2018-07-24T11:45:45.785Z,79.80
2018-07-24T11:48:14.613Z,80.80
2018-07-24T11:50:43.446Z,81.60
2018-07-24T11:53:12.205Z,81.20
2018-07-24T11:55:41.121Z,82.50
2018-07-24T11:58:10.032Z,79.70
2018-07-24T12:00:38.832Z,78.90
2018-07-24T12:03:07.923Z,79.90
2018-07-24T12:08:05.224Z,78.40
2018-07-24T12:10:34.012Z,76.70
2018-07-24T12:13:02.834Z,78.40
2018-07-24T12:15:31.606Z,77.50
2018-07-24T12:18:00.434Z,77.90
2018-07-24T12:20:29.332Z,77.20
2018-07-24T12:22:59.057Z,78.60
2018-07-24T12:27:56.393Z,78.00
2018-07-24T12:30:25.347Z,77.90
2018-07-24T12:35:22.960Z,74.70
2018-07-24T12:37:51.765Z,75.50
2018-07-24T12:40:20.620Z,75.40
2018-07-24T12:42:49.412Z,76.00
2018-07-24T12:45:18.266Z,76.30
2018-07-24T12:47:47.066Z,78.50
2018-07-24T12:50:15.869Z,78.90
2018-07-24T12:52:44.636Z,78.40
2018-07-24T12:55:13.635Z,79.80
2018-07-24T12:57:42.376Z,79.80
2018-07-24T13:00:11.203Z,76.50
2018-07-24T13:02:39.977Z,76.40
2018-07-24T13:07:37.402Z,72.00
2018-07-24T13:10:06.173Z,72.90
2018-07-24T13:12:34.973Z,73.40
2018-07-24T13:15:04.384Z,72.40
2018-07-24T13:17:33.146Z,74.00
2018-07-24T13:20:02.181Z,73.40
2018-07-24T13:22:30.936Z,73.50
2018-07-24T13:24:59.800Z,73.80
2018-07-24T13:27:28.608Z,74.60
2018-07-24T13:29:57.372Z,74.30
2018-07-24T13:32:26.175Z,75.50
2018-07-24T13:34:54.993Z,78.00
2018-07-24T13:37:23.744Z,77.70
2018-07-24T13:39:52.593Z,77.50
2018-07-24T13:42:21.340Z,78.80
2018-07-24T13:44:50.149Z,76.40
2018-07-24T13:47:19.114Z,75.20
2018-07-24T13:49:47.912Z,73.30
2018-07-24T13:52:16.705Z,73.70
2018-07-24T13:54:45.500Z,75.70
2018-07-24T13:59:42.790Z,74.30
2018-07-24T14:02:11.602Z,74.90
2018-07-24T14:04:40.418Z,74.20
2018-07-24T14:07:09.525Z,73.90
2018-07-24T14:09:38.285Z,75.50
2018-07-24T14:12:07.324Z,76.10
2018-07-24T14:14:36.151Z,77.40
2018-07-24T14:17:05.223Z,77.70
2018-07-24T14:19:34.712Z,76.60
2018-07-24T14:22:03.477Z,77.60
2018-07-24T14:24:32.324Z,76.60
2018-07-24T14:27:01.282Z,74.60
2018-07-24T14:29:30.368Z,74.90
2018-07-24T14:31:59.382Z,72.40
2018-07-24T14:34:28.245Z,73.90
2018-07-24T14:36:57.129Z,72.70
2018-07-24T14:39:25.993Z,73.00
2018-07-24T14:41:54.741Z,72.30
2018-07-24T14:44:23.588Z,71.40
2018-07-24T14:46:52.385Z,72.90
2018-07-24T14:49:21.180Z,74.60
2018-07-24T14:51:49.977Z,74.80
2018-07-24T14:54:18.744Z,74.30
2018-07-24T14:56:49.637Z,73.40
2018-07-24T14:59:18.508Z,77.60
2018-07-24T15:01:47.346Z,72.30
2018-07-24T15:04:16.237Z,69.70
2018-07-24T15:06:45.049Z,70.40
2018-07-24T15:09:13.956Z,67.50
2018-07-24T15:11:42.815Z,70.70
2018-07-24T15:14:11.867Z,69.40
2018-07-24T15:16:40.649Z,69.60
2018-07-24T15:19:09.464Z,69.70
2018-07-24T15:21:38.328Z,67.30
2018-07-24T15:24:07.196Z,65.10
2018-07-24T15:26:36.042Z,61.10
2018-07-24T15:29:04.877Z,59.00
2018-07-24T15:31:33.681Z,56.60
2018-07-24T15:34:02.841Z,57.30
2018-07-24T15:36:31.918Z,57.10
2018-07-24T15:39:00.745Z,56.10
2018-07-24T15:41:29.977Z,56.70
2018-07-24T15:43:58.813Z,57.50
2018-07-24T15:46:27.577Z,57.40
2018-07-24T15:48:56.369Z,55.60
2018-07-24T15:51:25.228Z,54.90
2018-07-24T15:53:54.009Z,55.60
2018-07-24T15:56:22.810Z,55.60
2018-07-24T15:58:51.585Z,55.10
2018-07-24T16:01:20.350Z,55.60
2018-07-24T16:03:49.141Z,53.10
2018-07-24T16:06:17.971Z,53.10
2018-07-24T16:08:46.920Z,53.90
2018-07-24T16:11:15.725Z,54.70
2018-07-24T16:13:44.512Z,53.60
2018-07-24T16:16:13.652Z,50.40
2018-07-24T16:18:42.413Z,50.30
2018-07-24T16:21:11.217Z,51.10
2018-07-24T16:23:39.957Z,52.10
2018-07-24T16:26:09.028Z,53.90
2018-07-24T16:31:06.401Z,55.10
2018-07-24T16:33:35.189Z,53.60
2018-07-24T16:36:04.281Z,52.30
2018-07-24T16:38:33.073Z,53.70
2018-07-24T16:41:01.834Z,53.80
2018-07-24T16:43:30.645Z,52.90
2018-07-24T16:45:59.444Z,51.80
2018-07-24T16:48:28.250Z,52.80
2018-07-24T16:50:57.052Z,51.60
2018-07-24T16:53:26.901Z,52.20
2018-07-24T16:55:55.777Z,51.90
2018-07-24T16:58:24.578Z,52.20
2018-07-24T17:00:53.577Z,53.70
2018-07-24T17:05:51.089Z,58.80
2018-07-24T17:08:19.896Z,62.60
2018-07-24T17:10:48.740Z,64.80
2018-07-24T17:13:17.533Z,66.80
2018-07-24T17:15:46.294Z,66.30
2018-07-24T17:18:15.081Z,66.70
2018-07-24T17:20:43.891Z,68.00
2018-07-24T17:23:12.997Z,68.40
2018-07-24T17:25:41.800Z,69.90
2018-07-24T17:28:10.581Z,70.20
2018-07-24T17:30:39.505Z,71.30
2018-07-24T17:33:08.378Z,72.10
2018-07-24T17:35:37.321Z,71.80
2018-07-24T17:38:06.234Z,72.50
2018-07-24T17:40:35.077Z,73.20
2018-07-24T17:43:03.782Z,73.10
2018-07-24T17:45:32.616Z,73.00
2018-07-24T17:48:01.796Z,74.10
2018-07-24T17:50:30.652Z,74.30
2018-07-24T17:52:59.533Z,74.60
2018-07-24T17:55:28.320Z,75.10
2018-07-24T17:57:57.072Z,75.30
2018-07-24T18:00:25.883Z,75.30
2018-07-24T18:02:54.935Z,75.50
2018-07-24T18:05:23.946Z,75.20
2018-07-24T18:10:21.346Z,74.60
2018-07-24T18:12:50.139Z,76.00
2018-07-24T18:15:18.948Z,76.50
2018-07-24T18:17:47.700Z,77.60
2018-07-24T18:20:16.548Z,76.50
2018-07-24T18:22:45.332Z,77.20
2018-07-24T18:25:14.108Z,77.70
2018-07-24T18:27:42.951Z,80.90
2018-07-24T18:30:12.065Z,80.00
2018-07-24T18:32:40.821Z,81.50
2018-07-24T18:35:09.585Z,82.60
2018-07-24T18:37:38.389Z,84.80
2018-07-24T18:40:07.164Z,86.50
2018-07-24T18:42:36.167Z,85.70
2018-07-24T18:45:05.209Z,87.90
2018-07-24T18:47:34.035Z,88.30
2018-07-24T18:50:02.881Z,90.10
2018-07-24T18:52:31.651Z,90.20
2018-07-24T18:55:00.453Z,90.70
2018-07-24T18:57:29.400Z,91.40
2018-07-24T18:59:58.157Z,91.60
2018-07-24T19:02:26.918Z,92.00
2018-07-24T19:04:55.790Z,92.00
2018-07-24T19:07:24.580Z,91.90
2018-07-24T19:12:22.797Z,91.80
2018-07-24T19:14:51.601Z,92.50
2018-07-24T19:17:20.565Z,92.40
2018-07-24T19:22:17.909Z,92.50
2018-07-24T19:24:46.709Z,93.10
2018-07-24T19:27:15.461Z,93.30
2018-07-24T19:29:44.549Z,94.00
2018-07-24T19:32:13.355Z,94.20
2018-07-24T19:34:42.108Z,94.60
2018-07-24T19:37:10.884Z,95.20
2018-07-24T19:39:39.779Z,95.80
2018-07-24T19:42:08.626Z,96.20
2018-07-24T19:44:37.426Z,96.60
2018-07-24T19:47:06.308Z,97.10
2018-07-24T19:49:35.157Z,96.80
2018-07-24T19:52:04.179Z,96.90
2018-07-24T19:54:33.046Z,97.10
2018-07-24T19:57:01.845Z,97.50
2018-07-24T19:59:31.054Z,97.40
2018-07-24T20:01:59.813Z,98.00
2018-07-24T20:04:28.600Z,98.30
2018-07-24T20:06:57.605Z,98.60
2018-07-24T20:09:26.366Z,98.60
2018-07-24T20:11:55.159Z,98.70
2018-07-24T20:14:24.204Z,98.90
2018-07-24T20:16:52.971Z,98.80
2018-07-24T20:19:21.729Z,98.60
2018-07-24T20:21:50.568Z,99.00
2018-07-24T20:24:19.532Z,99.20
2018-07-24T20:26:48.333Z,99.70
2018-07-24T20:29:17.286Z,99.90
2018-07-24T20:31:46.074Z,99.90
2018-07-24T20:34:14.848Z,99.90
2018-07-24T20:36:43.989Z,99.90
2018-07-24T20:39:13.297Z,99.90
2018-07-24T20:41:42.715Z,99.90
2018-07-24T20:44:11.417Z,99.90
2018-07-24T20:46:40.211Z,99.90
2018-07-24T20:49:09.228Z,99.90
2018-07-24T20:51:38.025Z,99.90
2018-07-24T20:54:06.832Z,99.90
2018-07-24T20:56:35.751Z,99.90
2018-07-24T20:59:04.528Z,99.90
2018-07-24T21:04:02.117Z,99.90
2018-07-24T21:06:30.916Z,99.90
2018-07-24T21:08:59.660Z,99.90
2018-07-24T21:11:28.434Z,99.90
2018-07-24T21:13:57.237Z,99.90
2018-07-24T21:16:26.136Z,99.90
2018-07-24T21:18:54.996Z,99.90
2018-07-24T21:21:23.913Z,99.90
2018-07-24T21:23:52.896Z,99.90
2018-07-24T21:26:21.732Z,99.90
2018-07-24T21:28:50.502Z,99.90
2018-07-24T21:31:19.352Z,99.90
2018-07-24T21:33:48.152Z,99.90
2018-07-24T21:36:16.916Z,99.90
2018-07-24T21:38:45.862Z,99.90
2018-07-24T21:41:14.762Z,99.90
2018-07-24T21:43:43.560Z,99.90
2018-07-24T21:46:12.326Z,99.90
2018-07-24T21:48:41.170Z,99.90
2018-07-24T21:51:09.924Z,99.90
2018-07-24T21:53:38.766Z,99.90
2018-07-24T21:56:07.617Z,99.90
2018-07-24T21:58:36.656Z,99.90
2018-07-24T22:01:11.512Z,99.90
2018-07-24T22:03:40.451Z,99.90
2018-07-24T22:06:09.741Z,99.90
2018-07-24T22:08:39.123Z,99.90
2018-07-24T22:11:08.063Z,99.90
2018-07-24T22:13:36.882Z,99.90
2018-07-24T22:16:05.632Z,99.90
2018-07-24T22:18:34.561Z,99.90
2018-07-24T22:21:03.361Z,99.90
2018-07-24T22:23:32.270Z,99.90
2018-07-24T22:26:01.075Z,99.90
2018-07-24T22:28:29.821Z,99.90
2018-07-24T22:30:58.671Z,99.90
2018-07-24T22:33:27.472Z,99.90
2018-07-24T22:35:56.247Z,99.90
2018-07-24T22:38:25.368Z,99.90
2018-07-24T22:40:54.156Z,99.90
2018-07-24T22:43:22.904Z,99.90
2018-07-24T22:45:51.782Z,99.90
2018-07-24T22:48:20.541Z,99.90
2018-07-24T22:50:49.589Z,99.90
2018-07-24T22:53:18.354Z,99.90
2018-07-24T22:55:47.105Z,99.90
2018-07-24T22:58:15.893Z,99.90
2018-07-24T23:00:44.657Z,99.90
2018-07-24T23:03:13.413Z,99.90
2018-07-24T23:05:42.192Z,99.90
2018-07-24T23:08:11.242Z,99.90
2018-07-24T23:10:40.002Z,99.90
2018-07-24T23:13:08.762Z,99.90
2018-07-24T23:15:37.609Z,99.90
2018-07-24T23:18:06.348Z,99.90
2018-07-24T23:20:35.105Z,99.90
2018-07-24T23:23:04.141Z,99.90
2018-07-24T23:25:32.889Z,99.90
2018-07-24T23:28:01.701Z,99.90
2018-07-24T23:30:30.510Z,99.90
2018-07-24T23:32:59.277Z,99.90
2018-07-24T23:35:28.425Z,99.90
2018-07-24T23:37:57.215Z,99.90
2018-07-24T23:40:26.021Z,99.90
2018-07-24T23:42:54.811Z,99.90
2018-07-24T23:47:52.086Z,99.90
2018-07-24T23:50:20.832Z,99.90
2018-07-24T23:52:49.622Z,99.90
2018-07-24T23:55:18.412Z,99.90
2018-07-24T23:57:47.276Z,99.90
